BKPR Airport Information

Runway Information
Runway 17 Length 8165 ft width 148 ft
Elevation 1789 ft Threshold 0 ft Heading 176
Runway 35 Length 8165 ft Width 148 ft
Elevation 1786 ft Threshold 0 ft Heading 356
Airport Frequencies
Type APP Name APP Frequency 118.775 MHZ
Type GND Name GND Frequency 118 MHZ
Type RMP Name RAMP OPR Frequency 136.8 MHZ
Type TWR Name TWR Frequency 120.125 MHZ
Airport Navaids
Airport Weather Information & NOTAM
ADDS - METARS form results

(0444 UTC 19 June 2019)
Data provider http://aviationweather.gov/metar/data/
 
METAR text: BKPR 190430Z VRB01KT 0500 R17/0600V1100 FG BKN004 15/13 Q1017 BECMG 1500 BR
Conditions at: BKPR (PRISHTINA , CS) observed 0430 UTC 19 June 2019
Temperature: 15.0°C (59°F)
Dewpoint: 13.0°C (55°F) [RH = 88%]
Pressure (altimeter): 30.03 inches Hg (1017.0 mb)
Winds: variable direction winds at 1 MPH (1 knots; 0.5 m/s)
Visibility: 0.31 miles (0.50 km)
Ceiling: 400 feet AGL
Clouds: broken clouds at 400 feet AGL
Weather: FG  (fog)

METAR text: BKPR 190400Z VRB03KT 0800 R17/0450V0900 FG SCT005 15/13 Q1016 TEMPO 0400
Conditions at: BKPR (PRISHTINA , CS) observed 0400 UTC 19 June 2019
Temperature: 15.0°C (59°F)
Dewpoint: 13.0°C (55°F) [RH = 88%]
Pressure (altimeter): 30.00 inches Hg (1016.0 mb)
Winds: variable direction winds at 3 MPH (3 knots; 1.5 m/s)
Visibility: 0.50 miles (0.80 km)
Ceiling: at least 12,000 feet AGL
Clouds: scattered clouds at 500 feet AGL
Weather: FG  (fog)

Forecast for: BKPR (PRISHTINA , CS)
Text: TAF BKPR 190330Z 1904/1924 VRB03KT 0800 FG BKN005
Forecast period: 0400 to 0700 UTC 19 June 2019
Forecast type: FROM: standard forecast or significant change
Winds: variable direction winds at 3 MPH (3 knots; 1.5 m/s)
Visibility: 0.50 miles (0.80 km)
Ceiling: 500 feet AGL
Clouds: broken clouds at 500 feet AGL
Weather: FG  (fog)
Text: TEMPO 1904/1906 0300
Forecast period: 0400 to 0600 UTC 19 June 2019
Forecast type: TEMPORARY: The following changes expected for less than half the time period
Visibility: 0.19 miles (0.31 km)
Ceiling: unknown
Clouds: missing
Weather: no significant weather forecast for this period
Text: BECMG 1907/1909 9999 NSW
Forecast period: 0700 UTC 19 June 2019 to 0000 UTC 20 June 2019
Forecast type: BECOMING: Conditions expected to become as follows by 0900 UTC 19 June 2019
Winds: variable direction winds at 3 MPH (3 knots; 1.5 m/s)
Visibility: 6 or more miles 10+ km)
Ceiling: 500 feet AGL
Clouds: broken clouds at 500 feet AGL
Weather: NSW  (no significant weather)
Text: TEMPO 1910/1919 VRB15G25KT 4000 TSRA SCT025CB
Forecast period: 1000 to 1900 UTC 19 June 2019
Forecast type: TEMPORARY: The following changes expected for less than half the time period
Winds: variable direction winds at 17 MPH (15 knots; 7.7 m/s)
gusting to 29 MPH (25 knots; 12.9 m/s)
Visibility: 2.49 miles (4.01 km)
Ceiling: at least 12,000 feet AGL
Clouds: scattered clouds at 2500 feet AGL
Weather: TSRA  (rain associated with thunderstorm(s))